Time;durP1;ratioP1;P1;durP2;ratioP2;P2;SDS_P1;SDS_P2;PMS_P1;PMS_P2;Temp;Humidity;BMP_temperature;BMP_pressure;BME280_temperature;BME280_humidity;BME280_pressure;Samples;Min_cycle;Max_cycle;Signal;HPM_P1;HPM_P2
2024/01/17 00:11:48;;;;;;;18.77;10.75;;;;;;;-2.59;100.00;100050.13;5215935;23;20396;-78
2024/01/17 00:28:56;;;;;;;22.80;9.73;;;;;;;-2.75;100.00;100030.38;855800;23;20334;-84
2024/01/17 00:31:23;;;;;;;18.67;11.95;;;;;;;-2.75;100.00;100025.13;5010447;23;20249;-87
2024/01/17 01:03:42;;;;;;;21.58;10.38;;;;;;;-2.69;100.00;99978.97;2269104;23;20243;-81
2024/01/17 01:06:08;;;;;;;20.70;9.32;;;;;;;-2.75;100.00;99970.91;4997887;28;20062;-84
2024/01/17 01:08:38;;;;;;;18.60;9.73;;;;;;;-2.70;100.00;99970.31;4973564;28;20030;-86
2024/01/17 01:11:04;;;;;;;14.93;9.20;;;;;;;-2.68;100.00;99976.13;4980283;28;20038;-85
2024/01/17 01:13:30;;;;;;;;;;;;;;;-2.62;100.00;99983.19;5238235;23;20028;-84
2024/01/17 01:36:58;;;;;;;20.38;10.18;;;;;;;-2.45;100.00;99961.81;6147766;23;20020;31
2024/01/17 01:51:17;;;;;;;15.02;8.95;;;;;;;-2.43;100.00;99946.69;5380153;23;20122;-82
2024/01/17 01:53:44;;;;;;;;;;;;;;;-2.38;100.00;99944.25;4986307;28;20061;-84
2024/01/17 01:56:13;;;;;;;16.70;8.63;;;;;;;-2.43;100.00;99937.00;4986967;28;20016;-81
2024/01/17 01:58:43;;;;;;;16.38;8.93;;;;;;;-2.41;100.00;99934.97;4958629;28;20089;-80
2024/01/17 02:01:10;;;;;;;15.80;8.10;;;;;;;-2.44;100.00;99929.31;4980493;28;20070;-81
2024/01/17 02:03:38;;;;;;;16.20;9.07;;;;;;;-2.41;100.00;99934.19;4946766;28;20043;-82
2024/01/17 02:06:04;;;;;;;16.30;8.77;;;;;;;-2.42;100.00;99935.19;4965759;28;20038;-80
2024/01/17 02:08:31;;;;;;;15.07;9.45;;;;;;;-2.43;100.00;99925.72;4966420;28;20063;-81
2024/01/17 02:10:57;;;;;;;16.17;9.45;;;;;;;-2.43;100.00;99921.28;4979890;28;20120;-82
2024/01/17 02:13:23;;;;;;;18.92;9.07;;;;;;;-2.39;100.00;99925.09;4984603;28;20051;-81
2024/01/17 02:15:49;;;;;;;17.38;9.45;;;;;;;-2.40;100.00;99904.31;4959893;28;20042;-81
2024/01/17 02:18:16;;;;;;;20.60;9.45;;;;;;;-2.44;100.00;99892.63;4961290;28;20054;-85
2024/01/17 02:20:42;;;;;;;18.10;8.98;;;;;;;-2.42;100.00;99911.59;4973532;28;20106;-80
2024/01/17 02:23:24;;;;;;;21.85;9.77;;;;;;;-2.43;100.00;99907.38;4979398;28;20123;-80
2024/01/17 02:25:54;;;;;;;17.10;9.23;;;;;;;-2.43;100.00;99907.38;4986169;28;20038;-82
2024/01/17 02:28:21;;;;;;;17.20;9.80;;;;;;;-2.50;100.00;99892.44;5154460;23;20038;-82
2024/01/17 02:30:47;;;;;;;17.15;10.00;;;;;;;-2.53;100.00;99882.34;5047773;23;20042;-83
2024/01/17 02:33:14;;;;;;;16.17;9.38;;;;;;;-2.52;100.00;99886.59;5017605;23;20098;-81
2024/01/17 02:35:40;;;;;;;17.30;9.38;;;;;;;-2.51;100.00;99882.97;4997601;28;20031;-82
2024/01/17 02:38:06;;;;;;;15.77;9.15;;;;;;;-2.60;100.00;99878.94;4963176;28;20034;-82
2024/01/17 02:40:37;;;;;;;14.65;8.95;;;;;;;-2.62;100.00;99885.41;4995439;28;20558;-82
2024/01/17 02:43:04;;;;;;;18.63;9.43;;;;;;;-2.59;100.00;99872.69;4975667;23;20094;-83
2024/01/17 02:45:30;;;;;;;;;;;;;;;-2.61;100.00;99872.09;4969227;28;20035;-82
2024/01/17 02:47:57;;;;;;;14.98;8.55;;;;;;;-2.62;100.00;99865.25;4964313;28;19923;-81
2024/01/17 02:50:23;;;;;;;17.38;8.75;;;;;;;-2.69;100.00;99863.66;4947625;28;20039;-82
2024/01/17 02:52:49;;;;;;;16.33;8.60;;;;;;;-2.71;100.00;99861.22;4963095;29;20027;-82
2024/01/17 02:58:13;;;;;;;16.33;8.57;;;;;;;-2.71;100.00;99850.72;5264081;23;20062;-81
2024/01/17 03:00:42;;;;;;;17.33;8.45;;;;;;;-2.69;100.00;99853.97;4984492;28;20062;-83
2024/01/17 03:03:09;;;;;;;18.50;9.48;;;;;;;-2.77;100.00;99852.38;4998026;28;20400;-84
2024/01/17 03:05:39;;;;;;;14.98;8.50;;;;;;;-2.71;100.00;99861.22;4972624;28;20107;-83
2024/01/17 03:08:06;;;;;;;19.58;8.90;;;;;;;-2.75;100.00;99852.16;4957338;28;20038;-80
2024/01/17 03:33:46;;;;;;;15.57;8.70;;;;;;;-3.03;100.00;99802.63;4939629;28;20569;-75
2024/01/17 03:36:12;;;;;;;13.95;8.73;;;;;;;-3.05;100.00;99794.97;4924064;29;20040;-74
2024/01/17 03:38:43;;;;;;;14.70;8.82;;;;;;;-3.06;100.00;99795.97;4937358;28;20054;-76
2024/01/17 03:41:09;;;;;;;18.00;9.05;;;;;;;-3.07;100.00;99799.59;4936937;28;20032;-76
2024/01/17 03:43:36;;;;;;;15.40;9.00;;;;;;;-3.10;100.00;99793.97;4939484;28;20039;-77
2024/01/17 03:46:04;;;;;;;15.18;8.07;;;;;;;-3.11;100.00;99798.41;4937329;29;20579;-75
2024/01/17 03:48:29;;;;;;;18.25;8.75;;;;;;;-3.10;100.00;99789.53;4927771;29;20057;-76
2024/01/17 03:50:55;;;;;;;18.08;8.80;;;;;;;-3.16;100.00;99782.50;4958523;28;20424;-76
2024/01/17 03:53:23;;;;;;;15.50;8.13;;;;;;;-3.15;100.00;99775.44;4937608;28;20059;-75
2024/01/17 03:55:50;;;;;;;15.48;8.63;;;;;;;-3.16;100.00;99768.59;4935200;29;20039;-76
2024/01/17 03:58:16;;;;;;;14.15;8.95;;;;;;;-3.17;100.00;99765.16;4935374;29;20047;-75
2024/01/17 04:00:42;;;;;;;14.70;8.27;;;;;;;-3.20;100.00;99762.94;4923406;29;20683;-76
2024/01/17 04:03:12;;;;;;;16.20;8.13;;;;;;;-3.17;100.00;99765.16;4915812;29;20565;-76
2024/01/17 04:05:38;;;;;;;15.70;8.27;;;;;;;-3.22;100.00;99754.50;4925084;29;20035;-75
2024/01/17 04:08:05;;;;;;;13.50;7.50;;;;;;;-3.17;100.00;99754.69;4939935;28;20033;-77
2024/01/17 04:10:31;;;;;;;16.52;8.07;;;;;;;-3.17;100.00;99743.41;4911862;29;20039;-74
2024/01/17 04:12:57;;;;;;;14.13;7.85;;;;;;;-3.19;100.00;99727.88;4936353;28;20043;-76
2024/01/17 04:15:22;;;;;;;13.40;7.47;;;;;;;-3.19;100.00;99727.88;4913852;29;20051;-78
2024/01/17 04:17:51;;;;;;;15.55;7.40;;;;;;;-3.22;100.00;99711.78;4923168;29;20040;-79
2024/01/17 04:20:16;;;;;;;15.93;7.88;;;;;;;-3.24;100.00;99709.38;4945335;28;20054;-82
2024/01/17 04:22:43;;;;;;;16.27;8.23;;;;;;;-3.22;100.00;99707.34;4922868;28;20040;-77
2024/01/17 04:25:08;;;;;;;19.88;8.05;;;;;;;-3.23;100.00;99705.75;4939482;28;20045;-81
2024/01/17 04:27:34;;;;;;;18.98;8.30;;;;;;;-3.23;100.00;99702.34;4938236;28;20066;-81
2024/01/17 04:30:00;;;;;;;17.10;7.53;;;;;;;-3.24;100.00;99698.09;4921769;29;20039;-78
2024/01/17 04:32:26;;;;;;;14.98;7.47;;;;;;;-3.24;100.00;99691.06;4943430;28;20042;-79
2024/01/17 04:34:53;;;;;;;16.38;8.55;;;;;;;-3.21;100.00;99688.00;4949093;28;20409;-80
2024/01/17 04:37:18;;;;;;;16.98;7.78;;;;;;;-3.19;100.00;99690.41;4925722;28;20086;-79
2024/01/17 04:39:44;;;;;;;19.42;8.18;;;;;;;-3.22;100.00;99675.94;4934051;28;20055;-79
2024/01/17 04:42:10;;;;;;;13.90;7.63;;;;;;;-3.19;100.00;99680.75;4912052;29;20071;-78
2024/01/17 04:44:36;;;;;;;12.10;7.18;;;;;;;-3.19;100.00;99670.28;4927590;28;20051;-79
2024/01/17 04:47:03;;;;;;;15.38;7.45;;;;;;;-3.20;100.00;99668.66;4944345;28;20036;-80
2024/01/17 04:49:29;;;;;;;15.07;7.45;;;;;;;-3.19;100.00;99675.50;4934046;28;20507;-75
2024/01/17 04:51:55;;;;;;;17.88;7.20;;;;;;;-3.17;100.00;99668.28;4956895;28;20066;-81
2024/01/17 04:54:23;;;;;;;16.60;7.55;;;;;;;-3.16;100.00;99664.63;4943301;28;20039;-78
2024/01/17 04:56:49;;;;;;;12.40;6.82;;;;;;;-3.13;100.00;99663.41;4937733;28;20128;-81
2024/01/17 04:59:16;;;;;;;16.75;8.02;;;;;;;-3.10;100.00;99663.00;4940121;29;20508;-79
2024/01/17 05:01:41;;;;;;;17.48;8.18;;;;;;;-3.11;100.00;99656.16;4921180;29;20131;-80
2024/01/17 05:04:08;;;;;;;19.73;8.07;;;;;;;-3.10;100.00;99653.34;4930580;29;20636;-79
2024/01/17 05:06:34;;;;;;;14.30;7.57;;;;;;;-3.10;100.00;99637.63;4939874;28;20032;-78
2024/01/17 05:09:00;;;;;;;13.73;6.93;;;;;;;-3.08;100.00;99640.84;4912061;29;20126;-81
2024/01/17 05:11:27;;;;;;;15.27;6.82;;;;;;;-3.06;100.00;99628.31;4917164;29;20407;-78
2024/01/17 05:13:53;;;;;;;16.20;7.10;;;;;;;-3.03;100.00;99627.13;4946854;28;20066;-80
2024/01/17 05:16:19;;;;;;;14.73;6.95;;;;;;;-3.02;100.00;99618.25;4923509;29;20080;-80
2024/01/17 05:18:45;;;;;;;17.95;7.78;;;;;;;-3.04;100.00;99608.00;4941179;29;20043;-80
2024/01/17 05:21:11;;;;;;;14.35;8.00;;;;;;;-3.02;100.00;99611.19;4909328;29;20049;-77
2024/01/17 05:23:40;;;;;;;14.73;7.35;;;;;;;-3.00;100.00;99592.63;4919669;29;20046;-77
2024/01/17 05:26:06;;;;;;;12.80;7.00;;;;;;;-2.99;100.00;99606.53;4940059;29;20047;-80
2024/01/17 05:28:33;;;;;;;15.23;7.40;;;;;;;-2.99;100.00;99590.81;4925242;29;20042;-78
2024/01/17 05:30:58;;;;;;;13.32;7.45;;;;;;;-2.97;100.00;99591.44;4945388;28;20047;-79
2024/01/17 05:33:24;;;;;;;17.42;7.25;;;;;;;-2.96;100.00;99583.38;4948944;28;20684;-78
2024/01/17 05:35:51;;;;;;;11.70;7.47;;;;;;;-2.95;100.00;99568.44;4915936;29;20043;-79
2024/01/17 05:38:17;;;;;;;14.43;7.30;;;;;;;-2.95;100.00;99569.25;4945072;28;20035;-79
2024/01/17 05:40:42;;;;;;;11.50;7.40;;;;;;;-2.91;100.00;99574.84;4935015;28;20111;-80
2024/01/17 05:43:10;;;;;;;12.57;7.38;;;;;;;-2.91;100.00;99565.19;4927564;29;20040;-79
2024/01/17 05:45:35;;;;;;;15.63;8.43;;;;;;;-2.87;100.00;99573.44;4952489;28;20042;-78
2024/01/17 05:48:01;;;;;;;11.68;6.90;;;;;;;-2.86;100.00;99559.31;4924905;29;20047;-79
2024/01/17 05:50:28;;;;;;;14.38;7.07;;;;;;;-2.85;100.00;99558.28;4924912;29;20564;-77
2024/01/17 05:52:54;;;;;;;14.80;6.72;;;;;;;-2.85;100.00;99556.47;4938798;29;20035;-78
2024/01/17 05:55:20;;;;;;;16.00;7.45;;;;;;;-2.85;100.00;99547.81;4945591;29;20109;-78
2024/01/17 05:57:46;;;;;;;12.02;7.07;;;;;;;-2.80;100.00;99542.75;4932680;29;20546;-79
2024/01/17 06:00:12;;;;;;;14.68;7.43;;;;;;;-2.80;100.00;99540.94;4921967;29;20031;-79
2024/01/17 06:02:40;;;;;;;13.60;7.75;;;;;;;-2.79;100.00;99528.63;4944477;28;20110;-77
2024/01/17 06:05:10;;;;;;;16.65;6.15;;;;;;;-2.77;100.00;99522.19;4932613;29;20560;-74
2024/01/17 06:07:36;;;;;;;17.73;8.10;;;;;;;-2.74;100.00;99531.44;4941964;28;20044;-76
2024/01/17 06:10:03;;;;;;;;;;;;;;;-2.76;100.00;99522.97;4913266;29;20040;-76
2024/01/17 06:12:29;;;;;;;12.35;6.65;;;;;;;-2.77;100.00;99529.25;4940088;29;19914;-77
2024/01/17 06:14:56;;;;;;;13.18;6.53;;;;;;;-2.74;100.00;99526.19;4945131;28;20174;-74
2024/01/17 06:17:21;;;;;;;14.13;6.93;;;;;;;-2.75;100.00;99529.81;4944043;28;20673;-76
2024/01/17 06:19:47;;;;;;;12.52;7.75;;;;;;;-2.73;100.00;99526.97;4959238;28;20588;-77
2024/01/17 06:22:17;;;;;;;10.52;6.75;;;;;;;-2.72;100.00;99524.16;4943165;28;20039;-76
2024/01/17 06:24:43;;;;;;;13.00;6.57;;;;;;;-2.71;100.00;99517.88;4939488;28;20040;-76
2024/01/17 06:27:09;;;;;;;14.73;7.35;;;;;;;-2.69;100.00;99512.44;4940796;28;20091;-75
2024/01/17 06:29:35;;;;;;;16.98;7.35;;;;;;;-2.70;100.00;99511.66;4938403;29;20031;-77
2024/01/17 06:32:01;;;;;;;11.77;6.75;;;;;;;-2.66;100.00;99512.81;4940624;29;20095;-78
2024/01/17 06:34:28;;;;;;;14.43;7.85;;;;;;;-2.67;100.00;99503.34;4923493;29;20044;-76
2024/01/17 06:36:53;;;;;;;11.32;6.45;;;;;;;-2.68;100.00;99501.75;4912472;29;20075;-74
2024/01/17 06:39:19;;;;;;;12.77;6.55;;;;;;;-2.70;100.00;99495.94;4939902;28;20031;-77
2024/01/17 06:41:45;;;;;;;11.88;6.32;;;;;;;-2.70;100.00;99490.69;4915343;28;20528;-77
2024/01/17 06:44:11;;;;;;;11.20;6.18;;;;;;;-2.71;100.00;99490.88;4942051;29;20048;-75
2024/01/17 06:46:37;;;;;;;12.98;6.72;;;;;;;-2.74;100.00;99481.63;4943910;29;20031;-74
2024/01/17 06:49:03;;;;;;;11.48;6.10;;;;;;;-2.72;100.00;99482.22;4940451;29;20061;-74
2024/01/17 06:51:29;;;;;;;11.55;6.15;;;;;;;-2.70;100.00;99474.97;4929211;28;20039;-78
2024/01/17 06:53:55;;;;;;;11.18;5.63;;;;;;;-2.72;100.00;99476.97;4909667;28;20074;-76
2024/01/17 06:56:21;;;;;;;13.13;6.00;;;;;;;-2.73;100.00;99470.13;4941781;28;20043;-75
2024/01/17 06:58:47;;;;;;;12.50;6.03;;;;;;;-2.73;100.00;99474.56;4925259;29;20054;-78
2024/01/17 07:01:12;;;;;;;11.50;5.65;;;;;;;-2.77;100.00;99461.91;4943889;29;20039;-74
2024/01/17 07:03:37;;;;;;;10.70;5.82;;;;;;;-2.77;100.00;99459.28;4939982;29;20044;-74
2024/01/17 07:06:08;;;;;;;10.55;5.70;;;;;;;-2.78;100.00;99456.88;4942580;29;20039;-77
2024/01/17 07:08:33;;;;;;;9.75;5.80;;;;;;;-2.78;100.00;99460.31;4942987;28;20043;-75
2024/01/17 07:10:59;;;;;;;14.20;5.88;;;;;;;-2.76;100.00;99452.22;4938617;28;20042;-75
2024/01/17 07:13:25;;;;;;;9.77;5.80;;;;;;;-2.76;100.00;99454.84;4922870;29;20042;-76
2024/01/17 07:15:51;;;;;;;10.75;5.40;;;;;;;-2.77;100.00;99456.66;4921719;29;20110;-76
2024/01/17 07:18:16;;;;;;;10.25;5.55;;;;;;;-2.78;100.00;99449.84;4936562;29;20070;-78
2024/01/17 07:20:42;;;;;;;11.70;5.70;;;;;;;-2.78;100.00;99444.59;4912360;29;20058;-78
2024/01/17 07:23:08;;;;;;;10.40;5.00;;;;;;;-2.76;100.00;99444.38;4943922;28;20034;-76
2024/01/17 07:25:34;;;;;;;11.15;5.47;;;;;;;-2.75;100.00;99435.50;4940711;29;20044;-74
2024/01/17 07:28:00;;;;;;;10.43;5.10;;;;;;;-2.77;100.00;99437.53;4936802;28;20078;-76
2024/01/17 07:30:26;;;;;;;9.68;5.05;;;;;;;-2.77;100.00;99430.47;4925956;29;20422;-77
2024/01/17 07:32:51;;;;;;;11.70;5.88;;;;;;;-2.77;100.00;99432.28;4941141;28;20040;-75
2024/01/17 07:35:17;;;;;;;10.77;5.28;;;;;;;-2.75;100.00;99425.00;4947974;28;20816;-77
2024/01/17 07:37:43;;;;;;;11.10;5.40;;;;;;;-2.76;100.00;99423.41;4921638;29;20036;-80
2024/01/17 07:40:10;;;;;;;12.00;5.30;;;;;;;-2.76;100.00;99420.78;4925711;29;20482;-77
2024/01/17 07:42:36;;;;;;;9.60;4.80;;;;;;;-2.76;100.00;99415.53;4928661;29;20090;-78
2024/01/17 07:45:02;;;;;;;10.85;5.55;;;;;;;-2.78;100.00;99418.38;4926636;28;20035;-74
2024/01/17 07:47:28;;;;;;;11.82;5.40;;;;;;;-2.77;100.00;99411.31;4926205;29;20058;-75
2024/01/17 07:49:55;;;;;;;14.68;5.50;;;;;;;-2.77;100.00;99411.31;4936248;28;20134;-76
2024/01/17 07:52:21;;;;;;;11.38;4.93;;;;;;;-2.75;100.00;99409.28;4937388;28;20036;-76
2024/01/17 07:54:46;;;;;;;10.35;4.45;;;;;;;-2.73;100.00;99399.38;4919642;29;20043;-75
2024/01/17 07:57:12;;;;;;;8.88;4.78;;;;;;;-2.73;100.00;99388.91;4923310;29;20043;-75
2024/01/17 07:59:38;;;;;;;13.02;4.75;;;;;;;-2.67;100.00;99389.84;4939103;28;20053;-75
2024/01/17 08:02:05;;;;;;;8.80;4.50;;;;;;;-2.66;100.00;99386.22;4942427;28;20032;-76
2024/01/17 08:04:31;;;;;;;11.52;4.82;;;;;;;-2.68;100.00;99381.19;4925628;28;20577;-78
2024/01/17 08:06:58;;;;;;;13.07;4.50;;;;;;;-2.68;100.00;99377.78;4951036;28;20123;-76
2024/01/17 08:09:28;;;;;;;9.50;4.70;;;;;;;-2.69;100.00;99366.50;4943045;28;20046;-78
2024/01/17 08:11:55;;;;;;;8.07;4.80;;;;;;;-2.70;100.00;99364.91;4949675;28;20810;-75
2024/01/17 08:14:24;;;;;;;8.63;4.18;;;;;;;-2.68;100.00;99373.34;4892500;29;20849;-77
2024/01/17 08:16:53;;;;;;;12.13;5.10;;;;;;;-2.66;100.00;99366.03;4934535;28;20039;-74
2024/01/17 08:19:19;;;;;;;12.43;4.53;;;;;;;-2.65;100.00;99346.69;4936074;28;20035;-74
2024/01/17 08:21:46;;;;;;;11.40;5.22;;;;;;;-2.65;100.00;99341.44;4931644;28;20553;-77
2024/01/17 08:24:13;;;;;;;12.13;4.85;;;;;;;-2.65;100.00;99330.94;4937616;28;20552;-78
2024/01/17 08:26:39;;;;;;;7.93;4.30;;;;;;;-2.63;100.00;99339.41;4921142;29;20094;-76
2024/01/17 08:29:05;;;;;;;9.10;4.40;;;;;;;-2.59;100.00;99335.31;4917206;28;20042;-77
2024/01/17 08:31:30;;;;;;;8.02;3.97;;;;;;;-2.57;100.00;99328.06;4934075;28;20506;-75
2024/01/17 08:33:57;;;;;;;8.07;4.20;;;;;;;-2.56;100.00;99324.44;4918680;28;20043;-75
2024/01/17 08:36:27;;;;;;;8.80;3.92;;;;;;;-2.52;100.00;99322.16;4931911;28;20027;-73
2024/01/17 08:38:53;;;;;;;9.55;4.80;;;;;;;-2.50;100.00;99318.31;4928968;28;20078;-75
2024/01/17 08:41:19;;;;;;;10.68;5.05;;;;;;;-2.47;100.00;99317.06;4934326;28;20063;-76
2024/01/17 08:43:45;;;;;;;8.40;4.00;;;;;;;-2.44;100.00;99321.06;4933016;28;20038;-76
2024/01/17 08:46:11;;;;;;;8.05;4.30;;;;;;;-2.43;100.00;99312.19;4925023;28;20030;-74
2024/01/17 08:48:40;;;;;;;9.95;4.60;;;;;;;-2.43;100.00;99314.81;4924044;28;20571;-73
2024/01/17 08:51:11;;;;;;;9.82;3.95;;;;;;;-2.36;100.00;99315.53;4935597;28;20153;-75
2024/01/17 08:53:38;;;;;;;7.15;3.97;;;;;;;-2.37;100.00;99301.63;4926124;28;20550;-73
2024/01/17 08:56:05;;;;;;;9.73;4.30;;;;;;;-2.35;100.00;99311.88;4936300;28;20044;-74
2024/01/17 08:58:31;;;;;;;8.27;4.03;;;;;;;-2.34;100.00;99316.09;4939991;28;20036;-77
2024/01/17 09:00:58;;;;;;;11.23;4.60;;;;;;;-2.36;100.00;99318.97;4939018;28;20066;-75
2024/01/17 09:03:24;;;;;;;7.03;4.10;;;;;;;-2.30;100.00;99317.28;4940093;28;20461;-75
2024/01/17 09:05:50;;;;;;;8.82;4.07;;;;;;;-2.31;100.00;99319.06;4937905;28;20496;-73
2024/01/17 09:08:16;;;;;;;8.25;4.03;;;;;;;-2.31;100.00;99305.97;4911423;29;20050;-78
2024/01/17 09:10:42;;;;;;;8.90;4.10;;;;;;;-2.30;100.00;99306.78;4921350;29;20032;-76
2024/01/17 09:13:09;;;;;;;8.98;3.63;;;;;;;-2.37;100.00;99306.88;4948181;28;20464;-71
2024/01/17 09:15:35;;;;;;;17.83;4.70;;;;;;;-2.35;100.00;99304.03;4934985;28;20051;-75
2024/01/17 09:18:01;;;;;;;9.63;4.40;;;;;;;-2.30;100.00;99306.78;4953990;28;20043;-74
2024/01/17 09:20:27;;;;;;;9.65;4.30;;;;;;;-2.34;100.00;99314.28;4927730;28;20684;-75
2024/01/17 09:22:53;;;;;;;;;;;;;;;-2.31;100.00;99300.72;4914297;28;20032;-75
2024/01/17 09:25:21;;;;;;;9.63;3.78;;;;;;;-2.27;100.00;99303.72;4937655;28;19919;-75
2024/01/17 09:27:48;;;;;;;8.82;4.30;;;;;;;-2.23;100.00;99302.25;4919399;28;20083;-74
2024/01/17 09:30:13;;;;;;;9.60;4.10;;;;;;;-2.23;100.00;99292.56;4931607;28;20521;-75
2024/01/17 09:32:39;;;;;;;8.43;4.00;;;;;;;-2.25;100.00;99299.03;4941142;28;20448;-75
2024/01/17 09:35:05;;;;;;;9.55;4.13;;;;;;;-2.24;100.00;99305.88;4922284;28;20046;-75
2024/01/17 09:37:31;;;;;;;7.43;3.92;;;;;;;-2.23;100.00;99300.44;4931769;28;20454;-74
2024/01/17 09:39:56;;;;;;;11.95;4.10;;;;;;;-2.20;100.00;99309.69;4948957;28;20121;-77
2024/01/17 09:42:24;;;;;;;9.57;3.90;;;;;;;-2.17;100.00;99322.34;4928853;29;20166;-76
2024/01/17 09:44:49;;;;;;;10.15;4.45;;;;;;;-2.18;100.00;99299.75;4926374;28;20464;-77
2024/01/17 09:47:18;;;;;;;14.80;4.97;;;;;;;-2.16;100.00;99305.59;4925201;29;20505;-73
2024/01/17 09:49:44;;;;;;;10.65;4.03;;;;;;;-2.16;100.00;99302.97;4939324;28;20040;-78
2024/01/17 09:52:13;;;;;;;11.32;4.18;;;;;;;-2.09;100.00;99297.66;4958083;28;20046;-78
2024/01/17 09:54:45;;;;;;;7.63;4.15;;;;;;;-2.14;100.00;99295.69;4937118;28;20043;-75
2024/01/17 09:57:22;;;;;;;7.53;4.35;;;;;;;-2.07;100.00;99293.78;4925847;29;20031;-74
2024/01/17 09:59:51;;;;;;;8.30;4.15;;;;;;;-2.05;100.00;99302.22;4915849;28;20077;-72
2024/01/17 10:02:20;;;;;;;6.60;3.58;;;;;;;-2.03;100.00;99297.56;4933390;28;20091;-74
2024/01/17 10:04:46;;;;;;;7.63;3.92;;;;;;;-1.97;100.00;99299.28;4901987;29;20063;-75
2024/01/17 10:07:13;;;;;;;10.57;4.68;;;;;;;-1.99;100.00;99282.16;4915303;28;20584;-74
2024/01/17 10:09:40;;;;;;;8.95;3.67;;;;;;;-2.04;100.00;99284.66;4934208;28;20139;-73
2024/01/17 10:12:07;;;;;;;11.85;4.20;;;;;;;-1.99;100.00;99282.97;4934837;28;20122;-76
2024/01/17 10:14:33;;;;;;;8.30;4.15;;;;;;;-1.93;100.00;99286.50;4927235;29;20032;-77
2024/01/17 10:16:59;;;;;;;7.07;3.80;;;;;;;-1.90;100.00;99277.38;4909656;28;20067;-75
2024/01/17 10:19:25;;;;;;;8.20;4.07;;;;;;;-1.87;100.00;99274.34;4916205;29;20035;-74
2024/01/17 10:21:50;;;;;;;8.57;4.38;;;;;;;-1.82;100.00;99270.00;4942104;28;20046;-79
2024/01/17 10:24:16;;;;;;;10.07;4.20;;;;;;;-1.83;100.00;99270.22;4956854;28;20086;-77
2024/01/17 10:26:43;;;;;;;7.78;3.75;;;;;;;-1.81;100.00;99262.94;4943165;28;20070;-82
2024/01/17 10:29:12;;;;;;;7.88;4.25;;;;;;;-1.75;100.00;99246.28;4941642;28;20042;-76
2024/01/17 10:31:39;;;;;;;9.48;4.40;;;;;;;-1.69;100.00;99246.19;4920182;29;20063;-78
2024/01/17 10:34:07;;;;;;;9.32;4.43;;;;;;;-1.63;100.00;99236.59;4925638;28;20142;-76
2024/01/17 10:36:34;;;;;;;9.82;4.15;;;;;;;-1.63;100.00;99241.84;4922910;29;20034;-77
2024/01/17 10:39:03;;;;;;;12.52;5.28;;;;;;;-1.61;100.00;99245.06;4923187;28;20070;-80
2024/01/17 10:41:29;;;;;;;9.70;4.63;;;;;;;-1.57;100.00;99232.28;4924930;29;20039;-73
2024/01/17 10:44:00;;;;;;;10.07;4.43;;;;;;;-1.61;100.00;99231.94;4922310;28;20040;-78
2024/01/17 10:46:26;;;;;;;8.05;3.88;;;;;;;-1.58;100.00;99234.09;4950930;28;20043;-76
2024/01/17 10:48:53;;;;;;;12.00;4.72;;;;;;;-1.49;100.00;99227.50;4923410;28;20043;-76
2024/01/17 10:51:23;;;;;;;9.55;4.15;;;;;;;-1.46;100.00;99216.53;4924769;29;20048;-74
2024/01/17 10:53:54;;;;;;;8.23;4.22;;;;;;;-1.44;100.00;99214.47;4939586;28;20050;-76
2024/01/17 10:56:20;;;;;;;8.27;4.05;;;;;;;-1.43;100.00;99213.44;4941907;28;20087;-75
2024/01/17 10:58:50;;;;;;;12.77;4.13;;;;;;;-1.41;100.00;99200.09;4941670;28;20027;-77
2024/01/17 11:01:32;;;;;;;8.30;4.40;;;;;;;-1.40;100.00;99191.97;4956045;28;20036;-76
2024/01/17 11:04:06;;;;;;;10.05;4.50;;;;;;;-1.38;100.00;99189.91;4939462;28;20050;-74
2024/01/17 11:06:33;;;;;;;9.90;5.05;;;;;;;-1.36;100.00;99192.31;4923259;29;20035;-77
2024/01/17 11:09:00;;;;;;;9.80;4.47;;;;;;;-1.39;100.00;99188.31;4937898;28;20035;-76
2024/01/17 11:11:28;;;;;;;9.35;4.63;;;;;;;-1.38;100.00;99184.66;4947102;28;20039;-79
2024/01/17 11:13:57;;;;;;;8.98;5.05;;;;;;;-1.47;100.00;99183.44;4955444;28;20072;-76
2024/01/17 11:16:25;;;;;;;9.07;4.82;;;;;;;-1.39;100.00;99179.66;4939730;28;20027;-76
2024/01/17 11:18:52;;;;;;;9.60;5.20;;;;;;;-1.37;100.00;99178.38;4939942;28;20035;-77
2024/01/17 11:21:20;;;;;;;9.27;4.88;;;;;;;-1.35;100.00;99172.09;4939972;28;20035;-76
2024/01/17 11:23:53;;;;;;;9.05;4.72;;;;;;;-1.31;100.00;99173.25;4942549;28;20614;-75
2024/01/17 11:26:30;;;;;;;11.05;5.07;;;;;;;-1.22;100.00;99172.69;4937149;28;20043;-78
2024/01/17 11:29:28;;;;;;;7.75;4.53;;;;;;;-1.18;100.00;99170.38;4939532;28;20055;-76
2024/01/17 11:32:16;;;;;;;9.60;4.88;;;;;;;-1.11;100.00;99157.91;4938962;28;20106;-77
2024/01/17 11:34:42;;;;;;;9.65;5.00;;;;;;;-1.03;100.00;99149.66;4916411;29;20097;-77
2024/01/17 11:37:07;;;;;;;9.82;5.40;;;;;;;-1.01;100.00;99152.88;4917082;28;20459;-79
2024/01/17 11:39:33;;;;;;;9.48;4.53;;;;;;;-0.94;100.00;99153.53;4930289;29;20130;-76
2024/01/17 11:41:59;;;;;;;12.63;5.13;;;;;;;-0.87;100.00;99148.16;4944468;28;20043;-77
2024/01/17 11:44:25;;;;;;;10.68;4.97;;;;;;;-0.77;100.00;99147.53;4942336;28;20047;-80
2024/01/17 11:46:53;;;;;;;10.35;5.32;;;;;;;-0.67;100.00;99142.47;4949792;28;20040;-79
2024/01/17 11:49:38;;;;;;;13.07;5.55;;;;;;;-0.62;100.00;99137.28;4948688;28;20033;-79
2024/01/17 11:52:08;;;;;;;12.48;5.72;;;;;;;-0.56;100.00;99138.97;4935749;28;20063;-79
2024/01/17 11:54:34;;;;;;;9.05;5.00;;;;;;;-0.50;100.00;99127.53;4926030;29;20043;-79
2024/01/17 11:57:05;;;;;;;10.43;5.43;;;;;;;-0.42;100.00;99116.63;4945480;28;20111;-76
2024/01/17 11:59:34;;;;;;;10.77;4.90;;;;;;;-0.34;100.00;99123.31;4906068;29;20073;-78
2024/01/17 12:02:01;;;;;;;12.15;5.40;;;;;;;-0.35;100.00;99109.38;4944889;28;20082;-79
2024/01/17 12:04:26;;;;;;;10.63;5.55;;;;;;;-0.34;100.00;99105.72;4935791;28;20067;-78
2024/01/17 12:06:53;;;;;;;9.50;4.60;;;;;;;-0.29;100.00;99091.84;4937784;28;20050;-77
2024/01/17 12:09:19;;;;;;;10.85;5.43;;;;;;;-0.26;100.00;99086.13;4932262;28;20032;-81
2024/01/17 12:11:46;;;;;;;10.95;4.90;;;;;;;-0.20;100.00;99092.22;4925402;29;20043;-79
2024/01/17 12:14:13;;;;;;;10.48;5.15;;;;;;;-0.11;100.00;99085.56;4902476;28;20039;-81
2024/01/17 12:16:38;;;;;;;8.90;4.63;;;;;;;-0.08;100.00;99077.97;4921548;29;20046;-81
2024/01/17 12:19:04;;;;;;;8.77;4.88;;;;;;;-0.05;100.00;99079.34;4923763;28;20031;-81
2024/01/17 12:21:30;;;;;;;12.75;4.82;;;;;;;-0.06;100.00;99081.16;4937354;28;20062;-80
2024/01/17 12:23:56;;;;;;;11.32;5.32;;;;;;;-0.03;100.00;99079.88;4936919;28;20042;-80
2024/01/17 12:26:21;;;;;;;9.75;5.03;;;;;;;-0.11;100.00;99057.41;4927670;29;20039;-79
2024/01/17 12:28:47;;;;;;;9.52;5.07;;;;;;;-0.12;100.00;99055.81;4933031;28;20497;-81
2024/01/17 12:31:16;;;;;;;10.05;5.80;;;;;;;-0.11;100.00;99052.13;4938309;28;20032;-81
2024/01/17 12:33:42;;;;;;;11.30;4.97;;;;;;;-0.09;100.00;99054.53;4951371;28;20063;-79
2024/01/17 12:36:09;;;;;;;10.50;5.30;;;;;;;-0.11;100.00;99044.25;4940776;28;20043;-80
2024/01/17 12:38:36;;;;;;;9.95;5.20;;;;;;;-0.14;100.00;99041.28;4947694;28;20047;-81
2024/01/17 12:41:04;;;;;;;11.45;6.03;;;;;;;-0.17;100.00;99031.25;4916304;28;20509;-80
2024/01/17 12:43:33;;;;;;;11.38;5.07;;;;;;;-0.20;100.00;99034.34;4922921;29;20090;-81
2024/01/17 12:45:59;;;;;;;11.35;4.90;;;;;;;-0.22;100.00;99023.28;4930914;28;20405;-83
2024/01/17 12:48:26;;;;;;;9.05;4.53;;;;;;;-0.25;100.00;99029.03;4955001;28;20038;-78
2024/01/17 12:50:59;;;;;;;11.40;4.85;;;;;;;-0.28;100.00;99017.94;4942097;28;20047;-80
2024/01/17 12:53:29;;;;;;;13.55;4.70;;;;;;;-0.25;100.00;99029.84;4936947;28;20042;-79
2024/01/17 12:55:58;;;;;;;8.90;5.32;;;;;;;-0.30;100.00;99022.66;4925114;29;20454;-82
2024/01/17 12:58:26;;;;;;;11.23;5.10;;;;;;;-0.30;100.00;99017.38;4926684;29;20114;-83
2024/01/17 13:00:55;;;;;;;9.05;4.63;;;;;;;-0.32;100.00;99026.56;4938854;28;20039;-81
2024/01/17 13:03:21;;;;;;;10.13;5.22;;;;;;;-0.32;100.00;99032.63;4925824;28;20058;-82
2024/01/17 13:05:59;;;;;;;11.18;5.50;;;;;;;-0.38;100.00;99025.69;4946162;28;20043;-78
2024/01/17 13:08:26;;;;;;;10.88;4.72;;;;;;;-0.32;100.00;99016.84;4942716;28;20512;-77
2024/01/17 13:10:52;;;;;;;10.05;4.80;;;;;;;-0.32;100.00;99011.56;4935808;28;20130;-81
2024/01/17 13:13:22;;;;;;;7.75;5.25;;;;;;;-0.32;100.00;99008.16;4923380;28;20127;-81
2024/01/17 13:15:51;;;;;;;11.15;4.78;;;;;;;-0.38;100.00;99009.91;4941253;28;20035;-78